Terminal Aerodrome Forecast
Issued by NWS

Home | Current Version | Previous Version | Text Only | Print | Product List | Glossary On
Versions: 1 2 3 4 5 6 7 8 9 10 11 12 13 14 15 16 17 18
000
FTUS41 KCLE 192329
TAFFDY
TAF
KFDY 192329Z 2000/2024 15004KT P6SM VCSH SCT025 OVC040
      TEMPO 2000/2004 -SHRA BKN025
     FM200400 00000KT 3SM BR BKN015
      TEMPO 2004/2008 2SM BR BKN008
     FM200800 00000KT 2SM BR BKN008
      TEMPO 2009/2013 1/2SM FG BKN003
     FM201300 00000KT 6SM BR BKN006 OVC025
     FM201500 21004KT P6SM BKN025
     FM201800 21005KT P6SM BKN045=

USA.gov is the U.S. government's official web portal to all federal, state and local government web resources and services.